createdAt,value
2022-09-05T00:00:59.105Z,0
2022-09-05T00:03:59.169Z,0
2022-09-05T00:06:59.109Z,0
2022-09-05T00:09:59.988Z,0
2022-09-05T00:13:07.149Z,0
2022-09-05T00:15:59.028Z,0
2022-09-05T00:22:51.296Z,0
2022-09-05T00:24:24.786Z,0
2022-09-05T00:27:58.451Z,0
2022-09-05T00:31:50.793Z,0
2022-09-05T00:33:58.700Z,0
2022-09-05T00:36:58.701Z,0
2022-09-05T00:40:17.386Z,0
2022-09-05T00:42:58.708Z,0
2022-09-05T00:45:58.687Z,0
2022-09-05T00:48:58.679Z,0
2022-09-05T00:51:59.390Z,0
2022-09-05T00:54:58.695Z,0
2022-09-05T00:57:58.497Z,0
2022-09-05T01:00:59.329Z,0
2022-09-05T01:03:59.380Z,0.3333333333333333
2022-09-05T01:06:59.171Z,0
2022-09-05T01:09:59.340Z,0
2022-09-05T01:12:58.136Z,0
2022-09-05T01:15:59.303Z,0
2022-09-05T01:18:59.043Z,0
2022-09-05T01:21:59.154Z,0.3333333333333333
2022-09-05T01:24:58.940Z,0
2022-09-05T01:29:13.919Z,0.3333333333333333
2022-09-05T01:30:59.057Z,0
2022-09-05T01:33:58.928Z,0
2022-09-05T01:36:58.967Z,0
2022-09-05T01:40:15.475Z,0
2022-09-05T01:42:58.316Z,0
2022-09-05T01:45:59.841Z,0
2022-09-05T01:48:59.295Z,0
2022-09-05T01:51:58.712Z,0
2022-09-05T01:54:58.957Z,0
2022-09-05T01:57:59.071Z,0
2022-09-05T02:00:58.555Z,0
2022-09-05T02:03:58.571Z,0
2022-09-05T02:07:29.763Z,0
2022-09-05T02:10:04.902Z,0
2022-09-05T02:13:02.874Z,0
2022-09-05T02:16:00.220Z,0
2022-09-05T02:18:58.356Z,0
2022-09-05T02:21:58.686Z,0
2022-09-05T02:25:30.151Z,0
2022-09-05T02:28:05.669Z,0
2022-09-05T02:31:19.060Z,0
2022-09-05T02:34:01.900Z,0
2022-09-05T02:36:59.058Z,0
2022-09-05T02:45:04.365Z,0
2022-09-05T02:45:21.360Z,0
2022-09-05T02:45:58.765Z,0
2022-09-05T02:48:58.892Z,0
2022-09-05T02:57:25.370Z,0.3333333333333333
2022-09-05T02:57:35.241Z,0
2022-09-05T02:58:07.162Z,0
2022-09-05T03:00:59.486Z,0
2022-09-05T03:03:59.577Z,0
2022-09-05T03:06:58.747Z,0
2022-09-05T03:09:58.891Z,0
2022-09-05T03:12:58.946Z,0.3333333333333333
2022-09-05T03:16:01.286Z,0
2022-09-05T03:18:58.445Z,0
2022-09-05T03:21:59.243Z,0
2022-09-05T03:24:58.987Z,0
2022-09-05T03:27:58.257Z,0
2022-09-05T03:30:58.684Z,0
2022-09-05T03:33:58.840Z,0
2022-09-05T03:36:59.294Z,0
2022-09-05T03:39:59.396Z,0
2022-09-05T03:42:58.122Z,0
2022-09-05T03:45:59.120Z,0
2022-09-05T03:48:59.411Z,0
2022-09-05T03:57:08.369Z,0
2022-09-05T03:57:18.178Z,0
2022-09-05T03:57:59.171Z,0
2022-09-05T04:01:10.669Z,0
2022-09-05T04:08:14.026Z,0
2022-09-05T04:08:14.680Z,0
2022-09-05T04:09:58.945Z,0
2022-09-05T04:12:58.711Z,0
2022-09-05T04:15:59.471Z,0
2022-09-05T04:18:59.282Z,1
2022-09-05T04:21:58.898Z,2.3333333333333335
2022-09-05T04:24:58.755Z,3.3333333333333335
2022-09-05T04:27:59.071Z,6.333333333333333
2022-09-05T04:31:01.629Z,9.666666666666666
2022-09-05T04:33:58.546Z,13.333333333333334
2022-09-05T04:36:59.303Z,18.333333333333332
2022-09-05T04:39:59.463Z,23.666666666666668
2022-09-05T04:42:59.105Z,30.333333333333332
2022-09-05T04:45:59.391Z,38
2022-09-05T04:48:59.430Z,46
2022-09-05T04:52:00.270Z,56
2022-09-05T04:54:59.299Z,64.33333333333333
2022-09-05T04:57:59.322Z,73.33333333333333
2022-09-05T05:06:02.335Z,82
2022-09-05T05:06:18.135Z,92.66666666666667
2022-09-05T05:07:07.749Z,102
2022-09-05T05:10:47.621Z,113.66666666666667
2022-09-05T05:18:01.551Z,126.33333333333333
2022-09-05T05:18:08.141Z,138.66666666666666
2022-09-05T05:19:06.182Z,152
2022-09-05T05:21:59.615Z,167
2022-09-05T05:24:58.861Z,188.66666666666666
2022-09-05T05:27:59.792Z,218
2022-09-05T05:31:01.480Z,245.33333333333334
2022-09-05T05:33:58.698Z,267
2022-09-05T05:37:00.726Z,285.6666666666667
2022-09-05T05:39:59.305Z,302.3333333333333
2022-09-05T05:42:59.021Z,317.6666666666667
2022-09-05T05:45:58.893Z,329.6666666666667
2022-09-05T05:48:59.483Z,341.3333333333333
2022-09-05T05:52:01.263Z,348.3333333333333
2022-09-05T05:55:24.713Z,350
2022-09-05T05:57:59.311Z,315.3333333333333
2022-09-05T06:00:59.580Z,312.3333333333333
2022-09-05T06:03:59.319Z,276.6666666666667
2022-09-05T06:06:58.983Z,282.6666666666667
2022-09-05T06:14:55.062Z,290
2022-09-05T06:14:59.826Z,303.6666666666667
2022-09-05T06:16:06.586Z,299
2022-09-05T06:18:59.100Z,317.6666666666667
2022-09-05T06:22:10.090Z,349
2022-09-05T06:25:15.471Z,355
2022-09-05T06:28:17.502Z,384
2022-09-05T06:31:30.893Z,392.6666666666667
2022-09-05T06:33:58.578Z,419.3333333333333
2022-09-05T06:36:59.015Z,408
2022-09-05T06:39:59.050Z,418
2022-09-05T06:42:58.756Z,430.3333333333333
2022-09-05T06:45:59.247Z,462.6666666666667
2022-09-05T06:49:32.080Z,490.6666666666667
2022-09-05T06:52:02.664Z,515.6666666666666
2022-09-05T06:55:00.207Z,536
2022-09-05T06:57:59.402Z,512
2022-09-05T07:00:59.237Z,514.6666666666666
2022-09-05T07:03:59.194Z,516.6666666666666
2022-09-05T07:07:01.713Z,540.3333333333334
2022-09-05T07:09:59.413Z,580
2022-09-05T07:12:58.876Z,556
2022-09-05T07:15:59.296Z,556
2022-09-05T07:19:02.649Z,574.6666666666666
2022-09-05T07:21:58.583Z,577.3333333333334
2022-09-05T07:25:00.361Z,610.6666666666666
2022-09-05T07:28:28.488Z,608.6666666666666
2022-09-05T07:30:59.156Z,605.3333333333334
2022-09-05T07:33:58.972Z,596
2022-09-05T07:37:14.265Z,597
2022-09-05T07:40:00.781Z,536.6666666666666
2022-09-05T07:43:09.978Z,553
2022-09-05T07:45:59.200Z,556.6666666666666
2022-09-05T07:48:58.443Z,547.6666666666666
2022-09-05T07:56:47.398Z,538.3333333333334
2022-09-05T07:57:02.367Z,526
2022-09-05T07:57:58.866Z,512.6666666666666
2022-09-05T08:00:58.965Z,495
2022-09-05T08:04:05.482Z,480.6666666666667
2022-09-05T08:07:46.438Z,467.3333333333333
2022-09-05T08:10:09.339Z,446
2022-09-05T08:13:23.661Z,441
2022-09-05T08:16:15.181Z,439
2022-09-05T08:18:59.399Z,423.6666666666667
2022-09-05T08:21:58.990Z,426.6666666666667
2022-09-05T08:24:59.382Z,435.6666666666667
2022-09-05T08:27:58.467Z,431
2022-09-05T08:30:59.387Z,415.3333333333333
2022-09-05T08:33:58.268Z,425.3333333333333
2022-09-05T08:36:59.413Z,428.3333333333333
2022-09-05T08:40:11.676Z,428
2022-09-05T08:43:44.369Z,430.3333333333333
2022-09-05T08:46:47.153Z,428.6666666666667
2022-09-05T08:49:03.491Z,428.6666666666667
2022-09-05T08:51:59.352Z,424
2022-09-05T08:55:05.780Z,394.6666666666667
2022-09-05T08:57:59.102Z,426
2022-09-05T09:01:03.071Z,428
2022-09-05T09:03:58.841Z,408.3333333333333
2022-09-05T09:07:30.784Z,434
2022-09-05T09:09:59.639Z,437.3333333333333
2022-09-05T09:12:58.733Z,434
2022-09-05T09:15:58.575Z,437.3333333333333
2022-09-05T09:18:58.660Z,443.3333333333333
2022-09-05T09:21:59.157Z,444
2022-09-05T09:25:15.082Z,447.6666666666667
2022-09-05T09:28:46.413Z,450.3333333333333
2022-09-05T09:30:59.621Z,452
2022-09-05T09:33:58.378Z,455.3333333333333
2022-09-05T09:36:58.826Z,458.3333333333333
2022-09-05T09:39:58.573Z,464
2022-09-05T09:42:59.311Z,462.3333333333333
2022-09-05T09:45:59.521Z,460.6666666666667
2022-09-05T09:48:58.848Z,457
2022-09-05T09:51:59.346Z,452
2022-09-05T09:54:58.976Z,453
2022-09-05T09:58:00.045Z,452
2022-09-05T10:00:59.398Z,451.6666666666667
2022-09-05T10:07:04.618Z,451
2022-09-05T10:10:52.208Z,447.6666666666667
2022-09-05T10:10:54.667Z,449.3333333333333
2022-09-05T10:13:08.023Z,444.6666666666667
2022-09-05T10:15:59.709Z,445.3333333333333
2022-09-05T10:18:58.799Z,444.6666666666667
2022-09-05T10:24:58.805Z,443.6666666666667
2022-09-05T10:27:58.594Z,444
2022-09-05T10:32:34.699Z,445
2022-09-05T10:35:16.919Z,448.3333333333333
2022-09-05T10:36:59.086Z,449.3333333333333
2022-09-05T10:39:59.568Z,453.6666666666667
2022-09-05T10:43:00.827Z,457
2022-09-05T10:45:58.637Z,460.3333333333333
2022-09-05T10:48:59.266Z,477.6666666666667
2022-09-05T10:52:05.415Z,497.3333333333333
2022-09-05T10:55:14.056Z,527
2022-09-05T10:57:58.871Z,546.6666666666666
2022-09-05T11:02:24.864Z,615
2022-09-05T11:04:15.961Z,678.3333333333334
2022-09-05T11:06:58.325Z,706.3333333333334
2022-09-05T11:09:59.272Z,714.6666666666666
2022-09-05T11:12:59.002Z,749
2022-09-05T11:16:04.905Z,692.6666666666666
2022-09-05T11:18:58.225Z,715
2022-09-05T11:22:01.794Z,759
2022-09-05T11:24:58.916Z,802
2022-09-05T11:27:58.440Z,884
2022-09-05T11:30:59.471Z,818
2022-09-05T11:39:52.354Z,799
2022-09-05T11:39:53.549Z,766
2022-09-05T11:40:28.469Z,681.3333333333334
2022-09-05T11:42:58.556Z,668.3333333333334
2022-09-05T11:45:58.956Z,640
2022-09-05T11:48:59.052Z,668.6666666666666
2022-09-05T11:51:58.967Z,654.3333333333334
2022-09-05T11:54:59.536Z,655
2022-09-05T11:57:58.773Z,631.6666666666666
2022-09-05T12:01:43.072Z,605.6666666666666
2022-09-05T12:04:00.253Z,637
2022-09-05T12:06:59.559Z,671.6666666666666
2022-09-05T12:09:59.299Z,690
2022-09-05T12:12:59.388Z,685.3333333333334
2022-09-05T12:16:07.499Z,678.6666666666666
2022-09-05T12:19:02.773Z,720
2022-09-05T12:21:59.221Z,677
2022-09-05T12:25:26.249Z,664
2022-09-05T12:28:15.275Z,671.3333333333334
2022-09-05T12:32:30.968Z,645.6666666666666
2022-09-05T12:36:07.238Z,693.3333333333334
2022-09-05T12:40:40.363Z,586.3333333333334
2022-09-05T12:41:32.566Z,710.3333333333334
2022-09-05T12:44:39.284Z,731.6666666666666
2022-09-05T12:45:59.059Z,745
2022-09-05T12:49:04.558Z,819.6666666666666
2022-09-05T12:51:58.819Z,883.6666666666666
2022-09-05T12:54:59.648Z,902.3333333333334
2022-09-05T13:02:56.220Z,805
2022-09-05T13:03:14.678Z,808.3333333333334
2022-09-05T13:04:17.206Z,816
2022-09-05T13:06:58.866Z,827.3333333333334
2022-09-05T13:11:39.241Z,831.6666666666666
2022-09-05T13:14:52.472Z,835.6666666666666
2022-09-05T13:15:59.551Z,764.3333333333334
2022-09-05T13:18:58.381Z,743.6666666666666
2022-09-05T13:21:58.292Z,726.3333333333334
2022-09-05T13:24:59.268Z,611.6666666666666
2022-09-05T13:27:59.043Z,566
2022-09-05T13:32:18.289Z,515.3333333333334
2022-09-05T13:37:58.803Z,495.6666666666667
2022-09-05T13:38:13.079Z,472.3333333333333
2022-09-05T13:39:59.403Z,481.3333333333333
2022-09-05T13:42:59.068Z,484.3333333333333
2022-09-05T13:46:00.028Z,473.3333333333333
2022-09-05T13:49:26.689Z,445.6666666666667
2022-09-05T13:51:58.322Z,405.6666666666667
2022-09-05T13:54:58.786Z,386.6666666666667
2022-09-05T13:57:58.686Z,388.3333333333333
2022-09-05T14:00:59.759Z,391.6666666666667
2022-09-05T14:03:59.173Z,381.6666666666667
2022-09-05T14:07:43.964Z,378.3333333333333
2022-09-05T14:09:59.656Z,378.6666666666667
2022-09-05T14:13:01.245Z,376
2022-09-05T14:15:59.533Z,367.3333333333333
2022-09-05T14:18:59.618Z,371.6666666666667
2022-09-05T14:21:59.539Z,368.6666666666667
2022-09-05T14:25:00.362Z,362
2022-09-05T14:27:59.651Z,355.6666666666667
2022-09-05T14:33:46.662Z,351
2022-09-05T14:37:50.881Z,369
2022-09-05T14:37:58.491Z,358.6666666666667
2022-09-05T14:39:59.559Z,370.6666666666667
2022-09-05T14:42:58.749Z,368
2022-09-05T14:46:00.448Z,365
2022-09-05T14:48:59.177Z,357.6666666666667
2022-09-05T14:51:59.487Z,347.3333333333333
2022-09-05T14:55:21.423Z,334.6666666666667
2022-09-05T15:02:43.341Z,335
2022-09-05T15:02:46.127Z,331.3333333333333
2022-09-05T15:06:58.883Z,313.6666666666667
2022-09-05T15:12:17.473Z,318.3333333333333
2022-09-05T15:13:00.618Z,307.3333333333333
2022-09-05T15:16:02.740Z,301
2022-09-05T15:18:58.598Z,301.3333333333333
2022-09-05T15:21:59.575Z,298.6666666666667
2022-09-05T15:24:58.737Z,287
2022-09-05T15:27:58.861Z,275.6666666666667
2022-09-05T15:30:59.468Z,269.6666666666667
2022-09-05T15:33:59.319Z,264.6666666666667
2022-09-05T15:37:08.988Z,259.6666666666667
2022-09-05T15:39:59.812Z,255
2022-09-05T15:42:59.332Z,253
2022-09-05T15:45:59.423Z,249.33333333333334
2022-09-05T15:48:59.271Z,248
2022-09-05T15:51:59.459Z,245.66666666666666
2022-09-05T15:54:59.153Z,238.66666666666666
2022-09-05T15:57:59.313Z,234.66666666666666
2022-09-05T16:01:00.208Z,231.33333333333334
2022-09-05T16:07:45.945Z,228.33333333333334
2022-09-05T16:10:42.218Z,223
2022-09-05T16:10:42.749Z,225.66666666666666
2022-09-05T16:12:59.578Z,220.33333333333334
2022-09-05T16:22:54.851Z,217
2022-09-05T16:23:15.915Z,215
2022-09-05T16:23:30.448Z,211
2022-09-05T16:25:00.428Z,205.33333333333334
2022-09-05T16:27:58.695Z,198.66666666666666
2022-09-05T16:30:59.782Z,194
2022-09-05T16:33:59.677Z,189
2022-09-05T16:37:07.875Z,187
2022-09-05T16:39:59.909Z,184.33333333333334
2022-09-05T16:42:58.923Z,180
2022-09-05T16:45:59.553Z,169.33333333333334
2022-09-05T16:48:58.808Z,166
2022-09-05T16:51:59.439Z,153
2022-09-05T16:54:59.599Z,146.66666666666666
2022-09-05T16:57:59.011Z,147
2022-09-05T17:00:59.371Z,145.33333333333334
2022-09-05T17:03:58.842Z,144.33333333333334
2022-09-05T17:06:59.201Z,137.66666666666666
2022-09-05T17:09:59.360Z,132.33333333333334
2022-09-05T17:12:59.124Z,129
2022-09-05T17:15:59.264Z,123
2022-09-05T17:18:58.547Z,118.33333333333333
2022-09-05T17:29:20.682Z,109.33333333333333
2022-09-05T17:29:25.685Z,98.33333333333333
2022-09-05T17:29:33.612Z,91
2022-09-05T17:31:51.785Z,82.66666666666667
2022-09-05T17:33:58.586Z,74.33333333333333
2022-09-05T17:36:59.584Z,67
2022-09-05T17:39:58.846Z,57.666666666666664
2022-09-05T17:42:58.654Z,48.333333333333336
2022-09-05T17:45:59.332Z,40.333333333333336
2022-09-05T17:49:17.905Z,30.333333333333332
2022-09-05T17:51:58.888Z,21
2022-09-05T17:54:58.725Z,15.333333333333334
2022-09-05T17:57:59.317Z,10.333333333333334
2022-09-05T18:01:27.154Z,7.333333333333333
2022-09-05T18:04:16.192Z,4
2022-09-05T18:07:01.051Z,2.3333333333333335
2022-09-05T18:10:12.484Z,1.6666666666666667
2022-09-05T18:13:14.101Z,0
2022-09-05T18:15:58.341Z,0
2022-09-05T18:19:32.651Z,0.3333333333333333
2022-09-05T18:21:58.859Z,0.6666666666666666
2022-09-05T18:25:15.690Z,0
2022-09-05T18:28:06.613Z,0
2022-09-05T18:30:59.107Z,0
2022-09-05T18:33:59.631Z,0
2022-09-05T18:36:59.141Z,0
2022-09-05T18:39:59.024Z,0
2022-09-05T18:43:10.494Z,0.6666666666666666
2022-09-05T18:45:59.053Z,0
2022-09-05T18:49:56.538Z,0.6666666666666666
2022-09-05T18:51:58.878Z,0
2022-09-05T18:56:10.653Z,0
2022-09-05T18:57:59.560Z,0
2022-09-05T19:00:59.889Z,0
2022-09-05T19:03:59.307Z,0
2022-09-05T19:06:59.314Z,0
2022-09-05T19:09:59.070Z,0
2022-09-05T19:12:58.898Z,0
2022-09-05T19:16:34.860Z,0.3333333333333333
2022-09-05T19:18:59.443Z,0
2022-09-05T19:22:48.597Z,0
2022-09-05T19:24:59.443Z,0.6666666666666666
2022-09-05T19:32:26.910Z,0
2022-09-05T19:36:52.472Z,0
2022-09-05T19:37:04.607Z,0
2022-09-05T19:37:25.553Z,0
2022-09-05T19:45:03.565Z,0
2022-09-05T19:47:48.602Z,0
2022-09-05T19:47:50.282Z,0.6666666666666666
2022-09-05T19:48:59.065Z,0
2022-09-05T19:51:59.170Z,0.6666666666666666
2022-09-05T19:54:59.035Z,0
2022-09-05T19:58:19.342Z,0
2022-09-05T20:01:01.324Z,0
2022-09-05T20:03:58.856Z,0
2022-09-05T20:06:59.059Z,0
2022-09-05T20:09:59.808Z,0
2022-09-05T20:12:59.541Z,0
2022-09-05T20:15:59.281Z,0
2022-09-05T20:18:59.433Z,0
2022-09-05T20:21:59.028Z,0
2022-09-05T20:24:58.994Z,0
2022-09-05T20:27:59.677Z,0
2022-09-05T20:30:59.221Z,0
2022-09-05T20:33:59.458Z,0
2022-09-05T20:43:08.031Z,0
2022-09-05T20:43:24.765Z,0
2022-09-05T20:43:31.554Z,0
2022-09-05T20:46:27.941Z,0
2022-09-05T20:54:10.605Z,0
2022-09-05T20:54:19.417Z,0
2022-09-05T20:54:58.457Z,0
2022-09-05T20:57:58.719Z,0
2022-09-05T21:01:21.673Z,0
2022-09-05T21:03:59.133Z,1.3333333333333333
2022-09-05T21:06:59.180Z,0
2022-09-05T21:09:59.606Z,0
2022-09-05T21:12:58.858Z,0
2022-09-05T21:15:59.216Z,0
2022-09-05T21:18:58.997Z,0
2022-09-05T21:21:59.281Z,0
2022-09-05T21:24:58.862Z,0.3333333333333333
2022-09-05T21:27:59.013Z,0
2022-09-05T21:30:59.067Z,0
2022-09-05T21:33:58.608Z,0
2022-09-05T21:37:07.561Z,0
2022-09-05T21:40:00.863Z,0.3333333333333333
2022-09-05T21:47:37.332Z,0
2022-09-05T21:47:47.786Z,0
2022-09-05T21:48:58.467Z,0
2022-09-05T21:51:58.916Z,0
2022-09-05T21:59:17.793Z,0
2022-09-05T21:59:24.587Z,0
2022-09-05T22:00:59.369Z,0
2022-09-05T22:03:59.288Z,0
2022-09-05T22:06:58.543Z,0
2022-09-05T22:09:58.933Z,0
2022-09-05T22:12:59.037Z,0
2022-09-05T22:15:59.049Z,0
2022-09-05T22:18:59.196Z,0
2022-09-05T22:21:58.891Z,0.6666666666666666
2022-09-05T22:24:58.958Z,0
2022-09-05T22:27:58.757Z,0
2022-09-05T22:30:59.839Z,0
2022-09-05T22:33:58.760Z,0
2022-09-05T22:36:58.956Z,0
2022-09-05T22:39:58.855Z,0.3333333333333333
2022-09-05T22:42:59.365Z,0
2022-09-05T22:45:58.963Z,0
2022-09-05T22:48:58.548Z,0
2022-09-05T22:51:58.569Z,0
2022-09-05T22:54:59.500Z,0
2022-09-05T22:57:58.345Z,0
2022-09-05T23:00:59.275Z,0
2022-09-05T23:03:59.418Z,0
2022-09-05T23:06:58.468Z,0
2022-09-05T23:09:59.385Z,0
2022-09-05T23:12:59.078Z,0
2022-09-05T23:15:59.560Z,0
2022-09-05T23:18:59.012Z,0
2022-09-05T23:21:59.277Z,0
2022-09-05T23:24:59.023Z,0
2022-09-05T23:27:59.015Z,0.3333333333333333
2022-09-05T23:30:58.878Z,0
2022-09-05T23:33:58.334Z,0
2022-09-05T23:36:58.727Z,0
2022-09-05T23:40:00.016Z,0
2022-09-05T23:42:59.172Z,0
2022-09-05T23:45:58.514Z,0
2022-09-05T23:48:58.679Z,0
2022-09-05T23:51:58.729Z,0
2022-09-05T23:54:59.137Z,0
2022-09-05T23:57:59.075Z,0
